Currently 83°F in Beaumont, California, USA
83°F
90°F / 67°F
3 mph NW
0.00"
Wednesday, May 27, 2020 6:20 PM PDT

Beaumont, California Weather Summary
Last 36 Hours

Temperature Winds Hourly Humidity Dewpoint
Time Report Norm Report Norm Max Gusts Precip. Rpt. Norm Rpt. Norm Pressure
1Wed 06:20 PM  82.6°F  68°F  3 mph NW  4 mph  9 mph  0.00"  37%  51%  53°F  49°F  29.81"
Wed 06:00 PM  84.9°F  69°F  2 mph SW  3 mph  12 mph  0.00"  32%  49%  51°F  49°F  29.81"
Wed 05:00 PM  87.4°F  71°F  4 mph W  4 mph  10 mph  0.00"  25%  46%  46°F  48°F  29.81"
Wed 04:00 PM  89.1°F  72°F  1 mph NW  4 mph  10 mph  0.00"  25%  45%  47°F  48°F  29.81"
2Wed 03:00 PM  90.1°F  72°F  3 mph S  4 mph  12 mph  0.00"  26%  45%  49°F  49°F  29.83"
Wed 02:00 PM  88.0°F  71°F  3 mph SW  4 mph  12 mph  0.00"  28%  46%  50°F  48°F  29.84"
Wed 01:00 PM  87.1°F  70°F  4 mph SW  4 mph  10 mph  0.00"  28%  48%  49°F  49°F  29.84"
Wed 12:00 PM  84.9°F  68°F  3 mph SW  4 mph  12 mph  0.00"  29%  52%  48°F  49°F  29.85"
Wed 11:00 AM  81.5°F  66°F  4 mph SW  3 mph  10 mph  0.00"  31%  55%  47°F  49°F  29.86"
Wed 10:00 AM  79.5°F  63°F  3 mph S  4 mph  10 mph  0.00"  32%  60%  46°F  49°F  29.86"
Wed 09:00 AM  77.4°F  61°F  4 mph S  3 mph  6 mph  0.00"  34%  65%  46°F  48°F  29.86"
Wed 08:00 AM  73.4°F  58°F  2 mph E  2 mph  3 mph  0.00"  39%  69%  46°F  48°F  29.86"
Wed 07:00 AM  71.1°F  56°F  calm  1 mph  6 mph  0.00"  40%  71%  45°F  47°F  29.85"
Wed 06:00 AM  68.2°F  54°F  3 mph NW  2 mph  6 mph  0.00"  41%  73%  43°F  45°F  29.85"
3Wed 05:27 AM  66.7°F  54°F  3 mph W  2 mph  6 mph  ----  42%  73%  42°F  45°F  29.85"
Wed 05:22 AM  66.9°F  54°F  3 mph W  2 mph  none  0.00"  41%  73%  42°F  45°F  29.84"
Wed 12:00 AM  67.5°F  56°F  calm  2 mph  5 mph  0.00"  52%  74%  49°F  47°F  29.86"
Tue 11:00 PM  72.3°F  57°F  3 mph W  2 mph  10 mph  0.00"  40%  72%  46°F  47°F  29.87"
Tue 10:00 PM  69.1°F  58°F  2 mph W  2 mph  3 mph  0.00"  53%  70%  51°F  48°F  29.87"
Tue 09:00 PM  74.7°F  60°F  calm  3 mph  12 mph  0.00"  43%  66%  50°F  48°F  29.83"
Tue 08:00 PM  75.2°F  62°F  7 mph W  3 mph  14 mph  0.00"  46%  61%  52°F  48°F  29.82"
Tue 07:00 PM  78.4°F  65°F  4 mph NW  3 mph  16 mph  0.00"  42%  55%  53°F  48°F  29.81"
Tue 06:00 PM  83.7°F  68°F  4 mph W  4 mph  14 mph  0.00"  32%  50%  50°F  48°F  29.81"
Tue 05:00 PM  86.2°F  70°F  4 mph SW  4 mph  13 mph  0.00"  23%  47%  43°F  48°F  29.82"
Tue 04:16 PM  86.7°F  70°F  4 mph E  4 mph  1 mph  0.00"  24%  47%  44°F  48°F  29.81"

  1. Current weather data. No green row appears if the current weather data is also the high or low for the current day.
  2. High temperature for the current day.
  3. Low temperature for the current day.

The Beaumont, California weather pages are a service of WeatherCurrents. Cherry Valley is located in northern Riverside County, California, a community of the northern part of Beaumont, along the Interstate 10 highway, in the San Gorgonio pass area, between the communities of Calimesa, Banning.
Copyright ©2020  WeatherCurrents. All rights reserved. - Submit questions and comments - Privacy Policy

This page automatically refreshes every 10 minutes.